Time;durP1;ratioP1;P1;durP2;ratioP2;P2;SDS_P1;SDS_P2;PMS_P1;PMS_P2;Temp;Humidity;BMP_temperature;BMP_pressure;BME280_temperature;BME280_humidity;BME280_pressure;Samples;Min_cycle;Max_cycle;Signal;HPM_P1;HPM_P2
2023/10/03 00:01:04;;;;;;;44.33;16.27;;;;;;;;;;2073293;28;20045;-72
2023/10/03 00:02:27;;;;;;;44.38;16.08;;;;;;;;;;2078866;28;20021;-72
2023/10/03 00:03:52;;;;;;;47.97;17.77;;;;;;;;;;2074554;28;20060;-72
2023/10/03 00:05:17;;;;;;;42.92;15.93;;;;;;;;;;2083416;28;20542;-73
2023/10/03 00:06:39;;;;;;;43.85;16.20;;;;;;;;;;2073531;28;20032;-72
2023/10/03 00:08:00;;;;;;;44.85;15.98;;;;;;;;;;2071211;28;20160;-72
2023/10/03 00:09:21;;;;;;;41.30;15.60;;;;;;;;;;2064351;28;20105;-72
2023/10/03 00:10:42;;;;;;;46.75;16.58;;;;;;;;;;2072054;28;20037;-72
2023/10/03 00:12:03;;;;;;;40.70;16.48;;;;;;;;;;2073227;28;20762;-73
2023/10/03 00:13:25;;;;;;;44.77;17.10;;;;;;;;;;2071600;28;20033;-73
2023/10/03 00:14:46;;;;;;;42.00;15.88;;;;;;;;;;2078320;28;20135;-71
2023/10/03 00:16:08;;;;;;;48.33;16.60;;;;;;;;;;2074806;28;20038;-72
2023/10/03 00:17:29;;;;;;;44.95;17.38;;;;;;;;;;2073772;28;20088;-72
2023/10/03 00:18:50;;;;;;;53.55;16.27;;;;;;;;;;2072675;28;20080;-73
2023/10/03 00:20:12;;;;;;;40.20;16.17;;;;;;;;;;2075586;28;20346;-72
2023/10/03 00:21:36;;;;;;;47.65;17.27;;;;;;;;;;2073313;28;20038;-73
2023/10/03 00:22:57;;;;;;;43.03;16.67;;;;;;;;;;2072545;28;20116;-72
2023/10/03 00:24:18;;;;;;;45.25;17.45;;;;;;;;;;2071389;28;20096;-73
2023/10/03 00:25:39;;;;;;;44.33;17.02;;;;;;;;;;2074530;28;20041;-72
2023/10/03 00:27:00;;;;;;;42.72;15.95;;;;;;;;;;2081708;28;20029;-73
2023/10/03 00:28:21;;;;;;;39.55;16.00;;;;;;;;;;2071410;28;20080;-74
2023/10/03 00:29:42;;;;;;;45.15;15.70;;;;;;;;;;2078247;28;20092;-73
2023/10/03 00:31:07;;;;;;;47.55;17.00;;;;;;;;;;2080225;28;20021;-72
2023/10/03 00:32:29;;;;;;;43.50;14.20;;;;;;;;;;2087797;28;20893;-73
2023/10/03 00:33:50;;;;;;;44.55;16.92;;;;;;;;;;2081618;28;20400;-73
2023/10/03 00:35:11;;;;;;;41.17;16.58;;;;;;;;;;2072698;28;20037;-73
2023/10/03 00:36:32;;;;;;;48.87;17.33;;;;;;;;;;2065077;28;20061;-73
2023/10/03 00:37:53;;;;;;;44.88;15.77;;;;;;;;;;2079089;28;20029;-72
2023/10/03 00:39:14;;;;;;;42.50;16.23;;;;;;;;;;2072902;28;20444;-72
2023/10/03 00:40:36;;;;;;;45.65;16.98;;;;;;;;;;2075502;28;20401;-73
2023/10/03 00:41:56;;;;;;;43.28;16.52;;;;;;;;;;2074820;28;20038;-73
2023/10/03 00:43:17;;;;;;;46.85;16.33;;;;;;;;;;2071612;28;20065;-73
2023/10/03 00:44:38;;;;;;;42.38;16.60;;;;;;;;;;2071770;28;20029;-73
2023/10/03 00:45:59;;;;;;;42.55;15.38;;;;;;;;;;2091149;28;20036;-73
2023/10/03 00:47:20;;;;;;;52.95;19.48;;;;;;;;;;2082765;28;20029;-73
2023/10/03 00:48:41;;;;;;;42.75;14.48;;;;;;;;;;2082874;28;21543;-73
2023/10/03 00:50:06;;;;;;;46.73;15.57;;;;;;;;;;2081070;28;20037;-72
2023/10/03 00:51:27;;;;;;;42.15;15.18;;;;;;;;;;2081693;28;20431;-73
2023/10/03 00:52:55;;;;;;;44.08;16.13;;;;;;;;;;2079220;28;20111;-73
2023/10/03 00:54:16;;;;;;;43.13;17.25;;;;;;;;;;2081185;28;20033;-73
2023/10/03 00:55:41;;;;;;;42.90;16.65;;;;;;;;;;2081382;28;20074;-73
2023/10/03 00:57:02;;;;;;;47.88;17.70;;;;;;;;;;2081069;28;20033;-72
2023/10/03 00:58:31;;;;;;;47.00;18.35;;;;;;;;;;2083635;28;20032;-69
2023/10/03 00:59:56;;;;;;;47.75;17.58;;;;;;;;;;2083331;28;20033;-70
2023/10/03 01:01:18;;;;;;;42.53;16.70;;;;;;;;;;2081171;28;20050;-70
2023/10/03 01:02:49;;;;;;;46.10;15.93;;;;;;;;;;2090572;28;20025;-70
2023/10/03 01:04:18;;;;;;;47.47;19.15;;;;;;;;;;2073656;28;20068;-71
2023/10/03 01:05:39;;;;;;;43.00;18.05;;;;;;;;;;2078335;28;20060;-69
2023/10/03 01:07:00;;;;;;;45.13;16.58;;;;;;;;;;2082494;28;20033;-70
2023/10/03 01:08:23;;;;;;;45.03;16.67;;;;;;;;;;2080519;28;20033;-69
2023/10/03 01:09:44;;;;;;;45.85;18.45;;;;;;;;;;2083168;28;20136;-69
2023/10/03 01:11:07;;;;;;;41.28;16.35;;;;;;;;;;2083498;28;20044;-70
2023/10/03 01:12:29;;;;;;;43.72;16.73;;;;;;;;;;2083164;28;20048;-70
2023/10/03 01:13:56;;;;;;;45.58;16.15;;;;;;;;;;2084189;28;20420;-69
2023/10/03 01:15:22;;;;;;;45.05;16.23;;;;;;;;;;2079780;28;20099;-71
2023/10/03 01:16:44;;;;;;;45.22;17.00;;;;;;;;;;2083008;28;20041;-69
2023/10/03 01:18:05;;;;;;;44.30;17.10;;;;;;;;;;2080818;28;20033;-70
2023/10/03 01:19:30;;;;;;;44.40;17.25;;;;;;;;;;2079616;28;20038;-70
2023/10/03 01:21:00;;;;;;;49.85;16.15;;;;;;;;;;2083743;28;20091;-69
2023/10/03 01:22:26;;;;;;;44.65;15.77;;;;;;;;;;2085423;28;20033;-70
2023/10/03 01:23:47;;;;;;;48.45;17.17;;;;;;;;;;2085456;28;20428;-70
2023/10/03 01:25:12;;;;;;;41.38;15.98;;;;;;;;;;2084185;28;20075;-70
2023/10/03 01:26:33;;;;;;;42.92;16.15;;;;;;;;;;2080542;28;20603;-71
2023/10/03 01:27:54;;;;;;;45.28;16.85;;;;;;;;;;2081654;28;20025;-69
2023/10/03 01:29:15;;;;;;;50.88;17.42;;;;;;;;;;2073852;28;20041;-69
2023/10/03 01:30:37;;;;;;;47.05;17.63;;;;;;;;;;2075800;28;20026;-72
2023/10/03 01:31:58;;;;;;;42.78;16.05;;;;;;;;;;2081465;28;20436;-70
2023/10/03 01:33:26;;;;;;;46.47;15.95;;;;;;;;;;2081956;28;20029;-70
2023/10/03 01:34:47;;;;;;;49.17;17.30;;;;;;;;;;2074825;28;20626;-69
2023/10/03 01:36:08;;;;;;;51.90;16.67;;;;;;;;;;2077855;28;20050;-69
2023/10/03 01:37:29;;;;;;;41.05;16.25;;;;;;;;;;2083537;28;20033;-71
2023/10/03 01:38:50;;;;;;;44.78;16.58;;;;;;;;;;2081321;28;20099;-69
2023/10/03 01:40:16;;;;;;;45.60;16.70;;;;;;;;;;2086434;28;20020;-70
2023/10/03 01:41:37;;;;;;;41.70;15.35;;;;;;;;;;2079576;28;20473;-69
2023/10/03 01:42:58;;;;;;;47.22;17.23;;;;;;;;;;2085939;28;20037;-69
2023/10/03 01:44:19;;;;;;;44.80;17.33;;;;;;;;;;2083530;28;20038;-69
2023/10/03 01:45:40;;;;;;;43.65;16.77;;;;;;;;;;2077260;28;20175;-70
2023/10/03 01:47:03;;;;;;;41.60;15.05;;;;;;;;;;2074446;28;20307;-69
2023/10/03 01:48:24;;;;;;;45.15;15.77;;;;;;;;;;2088096;28;20067;-69
2023/10/03 01:49:45;;;;;;;43.08;16.25;;;;;;;;;;2084665;28;20456;-69
2023/10/03 01:51:07;;;;;;;42.63;15.38;;;;;;;;;;2082093;28;20091;-70
2023/10/03 01:52:28;;;;;;;40.83;15.00;;;;;;;;;;2080194;28;20523;-69
2023/10/03 01:53:49;;;;;;;41.72;16.40;;;;;;;;;;2085322;28;20048;-70
2023/10/03 01:55:12;;;;;;;41.58;14.63;;;;;;;;;;2087008;28;20389;-69
2023/10/03 01:56:34;;;;;;;46.53;16.13;;;;;;;;;;2082545;28;20399;-70
2023/10/03 01:57:54;;;;;;;40.95;15.63;;;;;;;;;;2081252;28;20052;-69
2023/10/03 01:59:16;;;;;;;49.25;15.25;;;;;;;;;;2081189;28;20022;-70
2023/10/03 02:00:37;;;;;;;40.95;14.80;;;;;;;;;;2082812;28;20029;-71
2023/10/03 02:01:58;;;;;;;39.67;15.13;;;;;;;;;;2091091;28;20071;-70
2023/10/03 02:03:19;;;;;;;43.17;16.52;;;;;;;;;;2082605;28;20036;-70
2023/10/03 02:04:40;;;;;;;43.85;15.25;;;;;;;;;;2083377;28;20091;-70
2023/10/03 02:06:01;;;;;;;44.75;16.95;;;;;;;;;;2085084;28;20039;-70
2023/10/03 02:07:24;;;;;;;41.90;16.02;;;;;;;;;;2082755;28;20102;-70
2023/10/03 02:08:44;;;;;;;41.47;15.73;;;;;;;;;;2081396;28;20029;-70
2023/10/03 02:10:05;;;;;;;40.38;15.18;;;;;;;;;;2082424;28;20090;-71
2023/10/03 02:11:27;;;;;;;40.00;15.85;;;;;;;;;;2090812;28;20029;-69
2023/10/03 02:12:50;;;;;;;36.47;15.00;;;;;;;;;;2081618;28;20174;-71
2023/10/03 02:14:11;;;;;;;42.42;15.43;;;;;;;;;;2087820;28;20400;-71
2023/10/03 02:15:36;;;;;;;42.35;15.52;;;;;;;;;;2083849;28;20084;-69
2023/10/03 02:16:57;;;;;;;38.92;14.25;;;;;;;;;;2079126;28;20425;-70
2023/10/03 02:18:19;;;;;;;40.17;17.02;;;;;;;;;;2080581;28;20037;-70
2023/10/03 02:19:40;;;;;;;42.75;16.35;;;;;;;;;;2082587;28;20453;-70
2023/10/03 02:21:01;;;;;;;40.00;15.38;;;;;;;;;;2075147;28;20038;-70
2023/10/03 02:22:22;;;;;;;39.53;14.25;;;;;;;;;;2085331;28;20037;-70
2023/10/03 02:23:43;;;;;;;38.80;15.68;;;;;;;;;;2077812;28;20505;-70
2023/10/03 02:25:04;;;;;;;41.13;16.30;;;;;;;;;;2081118;28;20044;-70
2023/10/03 02:26:28;;;;;;;40.45;15.50;;;;;;;;;;2083663;28;20034;-69
2023/10/03 02:27:50;;;;;;;40.60;15.70;;;;;;;;;;2087666;28;20033;-69
2023/10/03 02:29:12;;;;;;;40.53;15.65;;;;;;;;;;2084867;28;20139;-69
2023/10/03 02:30:34;;;;;;;;;;;;;;;;;;2082547;28;20033;-71
2023/10/03 02:31:57;;;;;;;39.28;14.80;;;;;;;;;;2082532;28;20286;-69
2023/10/03 02:33:21;;;;;;;37.85;15.13;;;;;;;;;;2082359;28;20566;-69
2023/10/03 02:34:42;;;;;;;39.30;15.32;;;;;;;;;;2081285;28;20063;-71
2023/10/03 02:36:05;;;;;;;38.67;14.35;;;;;;;;;;2081528;28;20049;-70
2023/10/03 02:37:25;;;;;;;38.95;14.85;;;;;;;;;;2070994;28;20037;-72
2023/10/03 02:38:47;;;;;;;37.10;14.02;;;;;;;;;;2078040;28;20107;-72
2023/10/03 02:40:08;;;;;;;36.72;13.88;;;;;;;;;;2083701;28;20131;-71
2023/10/03 02:41:29;;;;;;;40.00;15.13;;;;;;;;;;2083415;28;20393;-70
2023/10/03 02:42:51;;;;;;;42.92;15.57;;;;;;;;;;2082648;28;20079;-71
2023/10/03 02:44:15;;;;;;;43.72;14.07;;;;;;;;;;2081421;28;20092;-70
2023/10/03 02:45:37;;;;;;;40.42;14.98;;;;;;;;;;2079978;28;20542;-69
2023/10/03 02:46:58;;;;;;;;;;;;;;;;;;2082405;28;20445;-70
2023/10/03 02:48:21;;;;;;;42.20;15.35;;;;;;;;;;2082283;28;20344;-70
2023/10/03 02:49:43;;;;;;;37.00;13.75;;;;;;;;;;2081215;28;20033;-69
2023/10/03 02:51:05;;;;;;;32.80;13.15;;;;;;;;;;2078799;28;20757;-69
2023/10/03 02:52:27;;;;;;;38.50;14.30;;;;;;;;;;2089390;28;20558;-70
2023/10/03 02:53:48;;;;;;;38.60;14.20;;;;;;;;;;2082813;28;20030;-71
2023/10/03 02:55:08;;;;;;;41.03;14.07;;;;;;;;;;2081594;28;20045;-70
2023/10/03 02:56:29;;;;;;;39.25;13.95;;;;;;;;;;2083369;28;20029;-70
2023/10/03 02:57:50;;;;;;;33.70;12.68;;;;;;;;;;2082499;28;20396;-72
2023/10/03 02:59:11;;;;;;;33.55;12.68;;;;;;;;;;2080479;28;20025;-69
2023/10/03 03:00:35;;;;;;;40.22;13.95;;;;;;;;;;2083836;28;20025;-70
2023/10/03 03:01:56;;;;;;;35.03;12.50;;;;;;;;;;2082220;28;20037;-70
2023/10/03 03:03:17;;;;;;;35.15;14.98;;;;;;;;;;2088722;28;20038;-70
2023/10/03 03:04:40;;;;;;;36.30;13.30;;;;;;;;;;2084547;28;20569;-72
2023/10/03 03:06:03;;;;;;;35.95;14.18;;;;;;;;;;2079235;28;20504;-72
2023/10/03 03:07:26;;;;;;;36.63;14.13;;;;;;;;;;2073269;28;20129;-71
2023/10/03 03:08:47;;;;;;;31.30;13.10;;;;;;;;;;2081367;28;20086;-70
2023/10/03 03:10:11;;;;;;;34.53;12.63;;;;;;;;;;2074668;28;20041;-71
2023/10/03 03:11:34;;;;;;;38.85;14.43;;;;;;;;;;2072115;28;20076;-70
2023/10/03 03:12:55;;;;;;;31.15;11.80;;;;;;;;;;2072061;28;20481;-70
2023/10/03 03:14:16;;;;;;;39.17;13.70;;;;;;;;;;2074669;28;20045;-70
2023/10/03 03:15:37;;;;;;;37.17;14.43;;;;;;;;;;2080588;28;20515;-72
2023/10/03 03:16:57;;;;;;;35.60;13.90;;;;;;;;;;2086208;28;20095;-70
2023/10/03 03:18:24;;;;;;;32.70;11.95;;;;;;;;;;2077566;28;20492;-70
2023/10/03 03:19:44;;;;;;;36.28;13.95;;;;;;;;;;2088842;28;20037;-77
2023/10/03 03:21:08;;;;;;;35.97;14.27;;;;;;;;;;2076648;28;20389;-74
2023/10/03 03:22:29;;;;;;;29.73;12.32;;;;;;;;;;2082761;28;20103;-77
2023/10/03 03:23:56;;;;;;;33.03;12.70;;;;;;;;;;2076472;28;20095;-75
2023/10/03 03:26:58;;;;;;;32.10;11.70;;;;;;;;;;2082428;28;20033;-77
2023/10/03 03:28:23;;;;;;;;;;;;;;;;;;2091756;28;20454;-74
2023/10/03 03:31:26;;;;;;;28.27;12.15;;;;;;;;;;2082749;28;20029;-77
2023/10/03 03:32:47;;;;;;;30.60;12.07;;;;;;;;;;2082603;28;20028;-78
2023/10/03 03:34:08;;;;;;;32.75;12.50;;;;;;;;;;2079858;28;20457;-77
2023/10/03 03:35:34;;;;;;;26.15;11.25;;;;;;;;;;2075469;28;20209;-77
2023/10/03 03:36:58;;;;;;;31.42;13.45;;;;;;;;;;2073974;28;20045;-74
2023/10/03 03:38:22;;;;;;;32.88;13.48;;;;;;;;;;2073070;28;20037;-77
2023/10/03 03:39:57;;;;;;;28.90;12.18;;;;;;;;;;2067049;28;20514;-75
2023/10/03 03:41:18;;;;;;;26.55;11.55;;;;;;;;;;2072712;28;20172;-77
2023/10/03 03:42:39;;;;;;;29.40;12.93;;;;;;;;;;2072205;28;20449;-77
2023/10/03 03:44:00;;;;;;;27.15;11.27;;;;;;;;;;2073228;28;20041;-74
2023/10/03 03:45:21;;;;;;;27.08;11.13;;;;;;;;;;2080565;28;20041;-77
2023/10/03 03:46:43;;;;;;;28.92;11.88;;;;;;;;;;2080826;28;20570;-78
2023/10/03 03:48:06;;;;;;;28.35;11.60;;;;;;;;;;2070160;28;20743;-77
2023/10/03 03:49:28;;;;;;;41.00;11.73;;;;;;;;;;2076421;28;20029;-77
2023/10/03 03:50:50;;;;;;;35.13;12.00;;;;;;;;;;2080525;28;20112;-77
2023/10/03 03:52:12;;;;;;;30.13;11.80;;;;;;;;;;2081807;28;20021;-77
2023/10/03 03:53:33;;;;;;;28.73;11.00;;;;;;;;;;2091877;28;20033;-77
2023/10/03 03:54:54;;;;;;;28.50;10.85;;;;;;;;;;2088131;28;20045;-75
2023/10/03 03:56:16;;;;;;;29.40;10.98;;;;;;;;;;2080167;28;20103;-78
2023/10/03 03:57:37;;;;;;;27.33;10.63;;;;;;;;;;2083342;28;20534;-77
2023/10/03 03:58:57;;;;;;;23.50;10.93;;;;;;;;;;2078417;28;20034;-77
2023/10/03 04:00:20;;;;;;;27.65;10.23;;;;;;;;;;2080543;28;20032;-78
2023/10/03 04:01:41;;;;;;;25.63;9.93;;;;;;;;;;2082853;28;20166;-78
2023/10/03 04:03:09;;;;;;;28.58;10.05;;;;;;;;;;2087658;28;20037;-77
2023/10/03 04:04:29;;;;;;;26.27;12.40;;;;;;;;;;2074677;28;20461;-77
2023/10/03 04:05:50;;;;;;;21.83;9.77;;;;;;;;;;2080401;28;20052;-78
2023/10/03 04:07:11;;;;;;;23.83;10.75;;;;;;;;;;2086252;28;20468;-74
2023/10/03 04:08:32;;;;;;;25.48;11.82;;;;;;;;;;2082483;28;20041;-74
2023/10/03 04:09:53;;;;;;;29.10;11.45;;;;;;;;;;2086801;28;20115;-77
2023/10/03 04:11:15;;;;;;;25.88;10.02;;;;;;;;;;2081664;28;20021;-77
2023/10/03 04:12:42;;;;;;;24.58;11.13;;;;;;;;;;2080145;28;20037;-78
2023/10/03 04:14:05;;;;;;;27.52;10.70;;;;;;;;;;2082022;28;20151;-77
2023/10/03 04:15:26;;;;;;;27.60;10.18;;;;;;;;;;2081029;28;20030;-78
2023/10/03 04:16:48;;;;;;;25.77;10.25;;;;;;;;;;2080034;28;20045;-76
2023/10/03 04:18:09;;;;;;;;;;;;;;;;;;2073660;28;20033;-77
2023/10/03 04:19:30;;;;;;;31.10;10.57;;;;;;;;;;2076117;28;19932;-78
2023/10/03 04:20:53;;;;;;;25.92;10.85;;;;;;;;;;2072789;28;20517;-76
2023/10/03 04:22:14;;;;;;;22.35;9.07;;;;;;;;;;2075485;28;20080;-73
2023/10/03 04:23:35;;;;;;;21.80;9.48;;;;;;;;;;2075123;28;20136;-76
2023/10/03 04:24:56;;;;;;;24.90;10.18;;;;;;;;;;2077095;28;20111;-75
2023/10/03 04:26:17;;;;;;;21.40;9.07;;;;;;;;;;2091923;28;20059;-77
2023/10/03 04:27:38;;;;;;;24.25;8.77;;;;;;;;;;2082033;28;20429;-77
2023/10/03 04:28:59;;;;;;;25.42;10.23;;;;;;;;;;2080218;28;20033;-70
2023/10/03 04:30:23;;;;;;;24.23;10.25;;;;;;;;;;2064824;28;20046;-69
2023/10/03 04:31:46;;;;;;;27.85;9.93;;;;;;;;;;2070357;28;20397;-69
2023/10/03 04:33:07;;;;;;;26.83;10.73;;;;;;;;;;2079842;28;20535;-70
2023/10/03 04:34:28;;;;;;;20.33;9.07;;;;;;;;;;2080538;28;20025;-70
2023/10/03 04:35:49;;;;;;;20.83;9.25;;;;;;;;;;2076255;28;20443;-69
2023/10/03 04:37:10;;;;;;;22.25;9.77;;;;;;;;;;2080030;28;20034;-71
2023/10/03 04:38:34;;;;;;;18.35;9.02;;;;;;;;;;2080982;28;20095;-71
2023/10/03 04:39:55;;;;;;;21.95;9.27;;;;;;;;;;2081988;28;20029;-70
2023/10/03 04:41:17;;;;;;;21.67;8.77;;;;;;;;;;2080701;28;20034;-70
2023/10/03 04:42:38;;;;;;;25.77;10.45;;;;;;;;;;2079990;28;20030;-69
2023/10/03 04:44:01;;;;;;;18.83;9.32;;;;;;;;;;2079702;28;20029;-71
2023/10/03 04:45:23;;;;;;;20.98;9.90;;;;;;;;;;2082717;28;20509;-72
2023/10/03 04:46:45;;;;;;;19.50;9.05;;;;;;;;;;2081707;28;20044;-69
2023/10/03 04:48:06;;;;;;;25.35;10.15;;;;;;;;;;2081079;28;20025;-69
2023/10/03 04:49:27;;;;;;;19.65;7.70;;;;;;;;;;2080930;28;20021;-70
2023/10/03 04:50:48;;;;;;;22.23;10.23;;;;;;;;;;2072733;28;20140;-71
2023/10/03 04:52:09;;;;;;;22.92;9.40;;;;;;;;;;2078776;28;20044;-69
2023/10/03 04:53:30;;;;;;;19.33;8.68;;;;;;;;;;2079031;28;20324;-70
2023/10/03 04:54:51;;;;;;;20.42;8.88;;;;;;;;;;2082468;28;20083;-69
2023/10/03 04:56:12;;;;;;;20.25;8.30;;;;;;;;;;2083229;28;20021;-70
2023/10/03 04:57:33;;;;;;;17.08;8.20;;;;;;;;;;2080922;28;20447;-70
2023/10/03 04:58:55;;;;;;;18.80;8.18;;;;;;;;;;2081419;28;20036;-69
2023/10/03 05:00:16;;;;;;;14.43;7.57;;;;;;;;;;2081763;28;20040;-69
2023/10/03 05:01:37;;;;;;;15.43;6.93;;;;;;;;;;2079996;28;20412;-69
2023/10/03 05:02:58;;;;;;;14.43;7.40;;;;;;;;;;2078828;28;20099;-70
2023/10/03 05:04:19;;;;;;;18.00;8.35;;;;;;;;;;2082472;28;20045;-69
2023/10/03 05:05:40;;;;;;;16.55;6.72;;;;;;;;;;2078366;28;20353;-69
2023/10/03 05:07:01;;;;;;;18.40;7.72;;;;;;;;;;2079987;28;20025;-69
2023/10/03 05:08:22;;;;;;;16.30;7.70;;;;;;;;;;2081002;28;20021;-70
2023/10/03 05:09:43;;;;;;;19.92;7.78;;;;;;;;;;2079510;28;20077;-70
2023/10/03 05:11:05;;;;;;;14.30;7.57;;;;;;;;;;2077640;28;20458;-69
2023/10/03 05:12:26;;;;;;;16.88;8.07;;;;;;;;;;2085964;28;20524;-69
2023/10/03 05:13:48;;;;;;;16.60;7.57;;;;;;;;;;2090901;28;20135;-71
2023/10/03 05:15:09;;;;;;;18.00;8.50;;;;;;;;;;2078309;28;20765;-70
2023/10/03 05:16:29;;;;;;;16.98;8.77;;;;;;;;;;2072420;28;20087;-70
2023/10/03 05:17:50;;;;;;;19.25;7.75;;;;;;;;;;2077024;28;20038;-70
2023/10/03 05:19:11;;;;;;;17.45;8.57;;;;;;;;;;2082177;28;20029;-71
2023/10/03 05:20:37;;;;;;;22.70;8.68;;;;;;;;;;2083320;28;20053;-70
2023/10/03 05:21:58;;;;;;;17.35;8.35;;;;;;;;;;2081813;28;20045;-70
2023/10/03 05:23:21;;;;;;;16.60;8.05;;;;;;;;;;2078944;28;20033;-71
2023/10/03 05:24:42;;;;;;;19.83;8.43;;;;;;;;;;2083162;28;20426;-69
2023/10/03 05:26:03;;;;;;;15.38;7.78;;;;;;;;;;2071981;28;20030;-70
2023/10/03 05:27:24;;;;;;;15.13;7.70;;;;;;;;;;2070651;28;20412;-72
2023/10/03 05:28:45;;;;;;;19.20;8.88;;;;;;;;;;2068182;28;20054;-70
2023/10/03 05:30:08;;;;;;;20.27;9.18;;;;;;;;;;2070448;28;20042;-70
2023/10/03 05:31:29;;;;;;;19.48;9.07;;;;;;;;;;2079260;28;20191;-69
2023/10/03 05:32:50;;;;;;;17.83;8.90;;;;;;;;;;2064710;28;20031;-70
2023/10/03 05:34:11;;;;;;;16.00;8.73;;;;;;;;;;2068577;28;20092;-70
2023/10/03 05:35:32;;;;;;;16.73;8.35;;;;;;;;;;2070453;28;20030;-70
2023/10/03 05:36:53;;;;;;;15.07;7.93;;;;;;;;;;2076876;28;20042;-70
2023/10/03 05:38:14;;;;;;;20.15;9.55;;;;;;;;;;2075153;28;20099;-71
2023/10/03 05:39:35;;;;;;;19.40;8.73;;;;;;;;;;2071436;28;20041;-70
2023/10/03 05:40:57;;;;;;;12.73;7.47;;;;;;;;;;2075734;28;20041;-70
2023/10/03 05:42:18;;;;;;;14.77;7.55;;;;;;;;;;2071466;28;20440;-69
2023/10/03 05:43:39;;;;;;;17.25;8.05;;;;;;;;;;2070051;28;20042;-69
2023/10/03 05:45:00;;;;;;;17.23;8.57;;;;;;;;;;2068700;28;20034;-72
2023/10/03 05:46:21;;;;;;;21.23;9.50;;;;;;;;;;2081910;28;20102;-69
2023/10/03 05:47:44;;;;;;;16.23;8.32;;;;;;;;;;2080257;28;20119;-69
2023/10/03 05:49:06;;;;;;;19.92;9.48;;;;;;;;;;2081866;28;20442;-70
2023/10/03 05:50:27;;;;;;;19.02;8.70;;;;;;;;;;2086045;28;20037;-70
2023/10/03 05:51:49;;;;;;;14.65;7.30;;;;;;;;;;2083794;28;20049;-70
2023/10/03 05:53:09;;;;;;;12.88;7.85;;;;;;;;;;2085893;28;20546;-70
2023/10/03 05:54:30;;;;;;;16.50;8.15;;;;;;;;;;2083342;28;20030;-70
2023/10/03 05:55:51;;;;;;;14.68;9.13;;;;;;;;;;2074419;28;20107;-69
2023/10/03 05:57:12;;;;;;;16.88;8.20;;;;;;;;;;2076170;28;20033;-72
2023/10/03 05:58:34;;;;;;;19.73;8.65;;;;;;;;;;2072699;28;20129;-70
2023/10/03 05:59:55;;;;;;;14.95;7.80;;;;;;;;;;2072355;28;20038;-70
2023/10/03 06:01:16;;;;;;;18.10;8.40;;;;;;;;;;2073121;28;20033;-70
2023/10/03 06:02:39;;;;;;;15.77;8.48;;;;;;;;;;2079306;28;20445;-70
2023/10/03 06:03:59;;;;;;;14.38;8.35;;;;;;;;;;2073542;28;20373;-70
2023/10/03 06:05:22;;;;;;;16.55;9.48;;;;;;;;;;2073105;28;20096;-70
2023/10/03 06:06:46;;;;;;;17.05;8.25;;;;;;;;;;2091315;28;20074;-70
2023/10/03 06:08:07;;;;;;;17.48;8.88;;;;;;;;;;2084039;28;20330;-70
2023/10/03 06:09:28;;;;;;;17.23;9.43;;;;;;;;;;2083612;28;20033;-69
2023/10/03 06:10:49;;;;;;;18.50;8.60;;;;;;;;;;2084667;28;20080;-71
2023/10/03 06:12:10;;;;;;;17.00;8.10;;;;;;;;;;2083222;28;20441;-70
2023/10/03 06:13:31;;;;;;;13.90;7.72;;;;;;;;;;2081596;28;20029;-70
2023/10/03 06:14:52;;;;;;;22.13;8.70;;;;;;;;;;2083177;28;20025;-69
2023/10/03 06:16:14;;;;;;;17.10;8.88;;;;;;;;;;2080768;28;20385;-70
2023/10/03 06:17:35;;;;;;;17.58;8.43;;;;;;;;;;2081747;28;20413;-69
2023/10/03 06:18:57;;;;;;;17.25;9.02;;;;;;;;;;2074247;28;20034;-69
2023/10/03 06:20:18;;;;;;;17.80;7.95;;;;;;;;;;2078087;28;20025;-70
2023/10/03 06:21:39;;;;;;;21.00;8.93;;;;;;;;;;2088827;28;20280;-69
2023/10/03 06:23:01;;;;;;;17.98;8.50;;;;;;;;;;2079702;28;20041;-70
2023/10/03 06:24:25;;;;;;;20.98;9.02;;;;;;;;;;2075292;28;20385;-71
2023/10/03 06:25:45;;;;;;;17.60;7.95;;;;;;;;;;2077572;28;20456;-70
2023/10/03 06:27:09;;;;;;;20.58;8.30;;;;;;;;;;2078279;28;20119;-69
2023/10/03 06:28:30;;;;;;;14.73;8.35;;;;;;;;;;2086629;28;20032;-69
2023/10/03 06:29:51;;;;;;;19.30;8.75;;;;;;;;;;2085640;28;20499;-69
2023/10/03 06:31:12;;;;;;;20.13;10.35;;;;;;;;;;2082451;28;20096;-69
2023/10/03 06:32:33;;;;;;;15.77;8.27;;;;;;;;;;2081353;28;20025;-71
2023/10/03 06:33:54;;;;;;;17.30;8.40;;;;;;;;;;2082090;28;20392;-71
2023/10/03 06:35:15;;;;;;;19.40;8.68;;;;;;;;;;2073642;28;20041;-70
2023/10/03 06:36:36;;;;;;;12.13;8.15;;;;;;;;;;2082003;28;20128;-70
2023/10/03 06:37:57;;;;;;;15.60;8.90;;;;;;;;;;2086267;28;20336;-70
2023/10/03 06:39:18;;;;;;;18.58;9.23;;;;;;;;;;2078944;28;20025;-70
2023/10/03 06:40:40;;;;;;;17.95;9.23;;;;;;;;;;2078693;28;20033;-70
2023/10/03 06:42:02;;;;;;;14.48;8.30;;;;;;;;;;2080616;28;20171;-70
2023/10/03 06:43:23;;;;;;;16.20;8.25;;;;;;;;;;2080487;28;20542;-69
2023/10/03 06:44:44;;;;;;;15.35;8.73;;;;;;;;;;2082224;28;20501;-70
2023/10/03 06:46:06;;;;;;;14.13;8.73;;;;;;;;;;2083052;28;20033;-71
2023/10/03 06:47:27;;;;;;;18.88;8.10;;;;;;;;;;2082271;28;20543;-71
2023/10/03 06:48:51;;;;;;;18.67;7.75;;;;;;;;;;2088438;28;20040;-73
2023/10/03 06:50:17;;;;;;;21.20;9.85;;;;;;;;;;2084638;28;20033;-72
2023/10/03 06:51:38;;;;;;;15.10;8.18;;;;;;;;;;2081986;28;20021;-74
2023/10/03 06:52:59;;;;;;;17.33;8.63;;;;;;;;;;2074096;28;20030;-74
2023/10/03 06:54:20;;;;;;;13.90;7.40;;;;;;;;;;2079221;28;20460;-75
2023/10/03 06:55:41;;;;;;;16.25;6.97;;;;;;;;;;2080104;28;20040;-75
2023/10/03 06:57:03;;;;;;;16.98;7.65;;;;;;;;;;2094009;28;20036;-73
2023/10/03 06:58:24;;;;;;;16.25;7.85;;;;;;;;;;2076130;28;20247;-74
2023/10/03 06:59:46;;;;;;;14.63;7.68;;;;;;;;;;2073375;28;20033;-73
2023/10/03 07:01:11;;;;;;;16.85;7.10;;;;;;;;;;2080951;28;20029;-73
2023/10/03 07:02:32;;;;;;;14.75;7.20;;;;;;;;;;2078901;28;20025;-73
2023/10/03 07:03:54;;;;;;;12.02;6.75;;;;;;;;;;2079957;28;20021;-73
2023/10/03 07:05:15;;;;;;;15.40;8.13;;;;;;;;;;2070670;28;20504;-73
2023/10/03 07:06:36;;;;;;;11.50;7.32;;;;;;;;;;2077766;28;20037;-73
2023/10/03 07:07:58;;;;;;;12.27;7.05;;;;;;;;;;2078899;28;20030;-74
2023/10/03 07:09:19;;;;;;;14.20;6.88;;;;;;;;;;2080247;28;20033;-75
2023/10/03 07:10:41;;;;;;;14.68;8.00;;;;;;;;;;2078615;28;20030;-72
2023/10/03 07:12:03;;;;;;;16.02;8.13;;;;;;;;;;2079490;28;20127;-74
2023/10/03 07:13:26;;;;;;;19.30;8.88;;;;;;;;;;2089176;28;20033;-74
2023/10/03 07:14:48;;;;;;;14.70;8.32;;;;;;;;;;2075193;28;20026;-74
2023/10/03 07:16:09;;;;;;;20.70;8.98;;;;;;;;;;2078399;28;20072;-73
2023/10/03 07:17:30;;;;;;;16.05;8.75;;;;;;;;;;2082714;28;20030;-73
2023/10/03 07:18:51;;;;;;;18.88;9.45;;;;;;;;;;2080717;28;20574;-73
2023/10/03 07:20:13;;;;;;;18.85;9.43;;;;;;;;;;2080930;28;20040;-73
2023/10/03 07:21:37;;;;;;;16.25;8.85;;;;;;;;;;2090908;28;20071;-75
2023/10/03 07:23:00;;;;;;;17.05;9.35;;;;;;;;;;2084021;28;20044;-73
2023/10/03 07:24:21;;;;;;;22.80;10.35;;;;;;;;;;2089497;28;20033;-75
2023/10/03 07:25:42;;;;;;;15.77;9.48;;;;;;;;;;2090106;28;20508;-74
2023/10/03 07:27:03;;;;;;;20.35;10.52;;;;;;;;;;2082705;28;20030;-74
2023/10/03 07:28:24;;;;;;;19.23;9.85;;;;;;;;;;2080634;28;20048;-74
2023/10/03 07:29:46;;;;;;;20.38;8.60;;;;;;;;;;2081972;28;20044;-74
2023/10/03 07:31:07;;;;;;;;;;;;;;;;;;2080886;28;20025;-71
2023/10/03 07:32:30;;;;;;;21.98;10.38;;;;;;;;;;2081676;28;20378;-73
2023/10/03 07:33:52;;;;;;;20.98;10.25;;;;;;;;;;2080646;28;20021;-73
2023/10/03 07:35:17;;;;;;;19.73;10.32;;;;;;;;;;2073229;28;20397;-72
2023/10/03 07:36:38;;;;;;;17.50;9.15;;;;;;;;;;2080507;28;20064;-73
2023/10/03 07:37:58;;;;;;;16.90;10.07;;;;;;;;;;2081399;28;20029;-74
2023/10/03 07:39:21;;;;;;;16.52;9.68;;;;;;;;;;2081528;28;20033;-74
2023/10/03 07:40:42;;;;;;;19.98;9.88;;;;;;;;;;2080514;28;20022;-73
2023/10/03 07:42:04;;;;;;;16.88;9.50;;;;;;;;;;2081299;28;20411;-73
2023/10/03 07:43:26;;;;;;;19.00;9.82;;;;;;;;;;2081446;28;20036;-73
2023/10/03 07:44:52;;;;;;;19.40;10.98;;;;;;;;;;2073367;28;20034;-73
2023/10/03 07:46:19;;;;;;;18.38;9.13;;;;;;;;;;2080064;28;20038;-73
2023/10/03 07:47:41;;;;;;;14.20;9.75;;;;;;;;;;2081701;28;20048;-73
2023/10/03 07:49:02;;;;;;;18.50;9.60;;;;;;;;;;2081554;28;20025;-74
2023/10/03 07:50:25;;;;;;;15.55;9.35;;;;;;;;;;2080568;28;20496;-73
2023/10/03 07:51:46;;;;;;;17.35;9.35;;;;;;;;;;2085169;28;20135;-73
2023/10/03 07:53:11;;;;;;;14.40;8.90;;;;;;;;;;2073088;28;20465;-73
2023/10/03 07:54:32;;;;;;;14.43;9.20;;;;;;;;;;2080392;28;20034;-73
2023/10/03 07:55:53;;;;;;;14.90;10.38;;;;;;;;;;2080834;28;20034;-74
2023/10/03 07:57:14;;;;;;;20.52;9.48;;;;;;;;;;2081152;28;20033;-74
2023/10/03 07:58:35;;;;;;;17.92;10.18;;;;;;;;;;2073201;28;20030;-74
2023/10/03 07:59:56;;;;;;;16.25;9.60;;;;;;;;;;2078595;28;20033;-70
2023/10/03 08:01:17;;;;;;;20.08;9.55;;;;;;;;;;2080574;28;20036;-69
2023/10/03 08:02:43;;;;;;;17.00;9.38;;;;;;;;;;2081287;28;20382;-69
2023/10/03 08:04:08;;;;;;;18.10;10.68;;;;;;;;;;2088303;28;20360;-69